sensor_id;sensor_type;location;lat;lon;timestamp;P1;durP1;ratioP1;P2;durP2;ratioP2
50900;SDS011;36879;51.416;6.678;2022-12-07T00:01:54;34.65;;;20.63;;
50900;SDS011;36879;51.416;6.678;2022-12-07T00:04:20;33.17;;;21.33;;
50900;SDS011;36879;51.416;6.678;2022-12-07T00:06:47;29.63;;;21.23;;
50900;SDS011;36879;51.416;6.678;2022-12-07T00:09:16;35.97;;;22.05;;
50900;SDS011;36879;51.416;6.678;2022-12-07T00:11:43;33.80;;;20.42;;
50900;SDS011;36879;51.416;6.678;2022-12-07T00:14:11;41.58;;;23.25;;
50900;SDS011;36879;51.416;6.678;2022-12-07T00:16:37;34.85;;;22.55;;
50900;SDS011;36879;51.416;6.678;2022-12-07T00:19:03;39.20;;;22.98;;
50900;SDS011;36879;51.416;6.678;2022-12-07T00:21:30;37.97;;;22.08;;
50900;SDS011;36879;51.416;6.678;2022-12-07T00:23:57;33.35;;;22.58;;
50900;SDS011;36879;51.416;6.678;2022-12-07T00:26:27;35.85;;;23.23;;
50900;SDS011;36879;51.416;6.678;2022-12-07T00:28:54;35.28;;;22.73;;
50900;SDS011;36879;51.416;6.678;2022-12-07T00:31:21;42.67;;;24.25;;
50900;SDS011;36879;51.416;6.678;2022-12-07T00:33:47;39.92;;;23.88;;
50900;SDS011;36879;51.416;6.678;2022-12-07T00:36:14;34.38;;;21.85;;
50900;SDS011;36879;51.416;6.678;2022-12-07T00:38:41;39.63;;;25.20;;
50900;SDS011;36879;51.416;6.678;2022-12-07T00:41:09;37.88;;;22.92;;
50900;SDS011;36879;51.416;6.678;2022-12-07T00:43:35;35.13;;;23.23;;
50900;SDS011;36879;51.416;6.678;2022-12-07T00:46:01;30.23;;;22.20;;
50900;SDS011;36879;51.416;6.678;2022-12-07T00:48:27;41.08;;;24.15;;
50900;SDS011;36879;51.416;6.678;2022-12-07T00:50:54;33.97;;;22.00;;
50900;SDS011;36879;51.416;6.678;2022-12-07T00:53:20;36.70;;;22.38;;
50900;SDS011;36879;51.416;6.678;2022-12-07T00:55:46;40.17;;;24.88;;
50900;SDS011;36879;51.416;6.678;2022-12-07T00:58:12;42.78;;;25.15;;
50900;SDS011;36879;51.416;6.678;2022-12-07T01:00:38;34.65;;;23.15;;
50900;SDS011;36879;51.416;6.678;2022-12-07T01:03:05;35.63;;;24.55;;
50900;SDS011;36879;51.416;6.678;2022-12-07T01:05:31;43.60;;;26.73;;
50900;SDS011;36879;51.416;6.678;2022-12-07T01:07:57;43.80;;;25.10;;
50900;SDS011;36879;51.416;6.678;2022-12-07T01:10:24;38.03;;;25.75;;
50900;SDS011;36879;51.416;6.678;2022-12-07T01:12:50;38.10;;;24.60;;
50900;SDS011;36879;51.416;6.678;2022-12-07T01:15:16;36.22;;;23.85;;
50900;SDS011;36879;51.416;6.678;2022-12-07T01:17:42;42.38;;;24.58;;
50900;SDS011;36879;51.416;6.678;2022-12-07T01:20:08;39.15;;;24.25;;
50900;SDS011;36879;51.416;6.678;2022-12-07T01:22:37;39.90;;;25.77;;
50900;SDS011;36879;51.416;6.678;2022-12-07T01:25:04;43.85;;;24.63;;
50900;SDS011;36879;51.416;6.678;2022-12-07T01:27:30;34.75;;;23.40;;
50900;SDS011;36879;51.416;6.678;2022-12-07T01:29:56;40.55;;;24.15;;
50900;SDS011;36879;51.416;6.678;2022-12-07T01:32:22;39.10;;;24.65;;
50900;SDS011;36879;51.416;6.678;2022-12-07T01:34:48;33.05;;;22.27;;
50900;SDS011;36879;51.416;6.678;2022-12-07T01:37:14;39.65;;;25.33;;
50900;SDS011;36879;51.416;6.678;2022-12-07T01:39:40;38.63;;;24.30;;
50900;SDS011;36879;51.416;6.678;2022-12-07T01:42:10;40.63;;;26.20;;
50900;SDS011;36879;51.416;6.678;2022-12-07T01:47:21;35.67;;;23.92;;
50900;SDS011;36879;51.416;6.678;2022-12-07T01:49:47;43.72;;;26.30;;
50900;SDS011;36879;51.416;6.678;2022-12-07T01:52:27;42.72;;;26.90;;
50900;SDS011;36879;51.416;6.678;2022-12-07T01:54:54;38.83;;;24.02;;
50900;SDS011;36879;51.416;6.678;2022-12-07T01:57:22;44.88;;;24.52;;
50900;SDS011;36879;51.416;6.678;2022-12-07T01:59:49;39.40;;;24.23;;
50900;SDS011;36879;51.416;6.678;2022-12-07T02:02:18;40.97;;;26.35;;
50900;SDS011;36879;51.416;6.678;2022-12-07T02:04:45;35.65;;;24.17;;
50900;SDS011;36879;51.416;6.678;2022-12-07T02:07:11;42.95;;;25.83;;
50900;SDS011;36879;51.416;6.678;2022-12-07T02:09:37;43.35;;;25.80;;
50900;SDS011;36879;51.416;6.678;2022-12-07T02:12:03;39.72;;;25.35;;
50900;SDS011;36879;51.416;6.678;2022-12-07T02:14:30;42.45;;;26.40;;
50900;SDS011;36879;51.416;6.678;2022-12-07T02:24:55;39.33;;;25.50;;
50900;SDS011;36879;51.416;6.678;2022-12-07T02:35:30;42.53;;;26.40;;
50900;SDS011;36879;51.416;6.678;2022-12-07T02:40:38;38.08;;;25.00;;
50900;SDS011;36879;51.416;6.678;2022-12-07T02:43:10;47.42;;;27.27;;
50900;SDS011;36879;51.416;6.678;2022-12-07T02:45:38;41.40;;;27.70;;
50900;SDS011;36879;51.416;6.678;2022-12-07T02:48:05;43.35;;;26.38;;
50900;SDS011;36879;51.416;6.678;2022-12-07T02:50:32;41.72;;;26.30;;
50900;SDS011;36879;51.416;6.678;2022-12-07T02:52:58;44.88;;;25.55;;
50900;SDS011;36879;51.416;6.678;2022-12-07T02:55:26;39.95;;;26.48;;
50900;SDS011;36879;51.416;6.678;2022-12-07T02:57:59;44.13;;;27.52;;
50900;SDS011;36879;51.416;6.678;2022-12-07T03:00:27;43.90;;;26.15;;
50900;SDS011;36879;51.416;6.678;2022-12-07T03:02:56;43.97;;;25.75;;
50900;SDS011;36879;51.416;6.678;2022-12-07T03:10:48;42.88;;;26.30;;
50900;SDS011;36879;51.416;6.678;2022-12-07T03:15:45;40.03;;;26.45;;
50900;SDS011;36879;51.416;6.678;2022-12-07T03:18:13;44.17;;;27.08;;
50900;SDS011;36879;51.416;6.678;2022-12-07T03:20:41;48.05;;;27.13;;
50900;SDS011;36879;51.416;6.678;2022-12-07T03:23:08;49.28;;;28.95;;
50900;SDS011;36879;51.416;6.678;2022-12-07T03:25:38;43.33;;;24.85;;
50900;SDS011;36879;51.416;6.678;2022-12-07T03:28:06;40.58;;;27.25;;
50900;SDS011;36879;51.416;6.678;2022-12-07T03:30:34;40.95;;;24.70;;
50900;SDS011;36879;51.416;6.678;2022-12-07T03:33:07;41.10;;;25.05;;
50900;SDS011;36879;51.416;6.678;2022-12-07T03:35:39;46.15;;;28.00;;
50900;SDS011;36879;51.416;6.678;2022-12-07T03:38:17;49.08;;;26.70;;
50900;SDS011;36879;51.416;6.678;2022-12-07T03:40:57;48.40;;;25.67;;
50900;SDS011;36879;51.416;6.678;2022-12-07T03:43:27;42.40;;;25.40;;
50900;SDS011;36879;51.416;6.678;2022-12-07T03:46:00;48.30;;;27.20;;
50900;SDS011;36879;51.416;6.678;2022-12-07T03:51:00;48.95;;;28.17;;
50900;SDS011;36879;51.416;6.678;2022-12-07T03:53:33;52.88;;;27.85;;
50900;SDS011;36879;51.416;6.678;2022-12-07T03:56:00;50.65;;;27.35;;
50900;SDS011;36879;51.416;6.678;2022-12-07T03:58:26;46.20;;;27.33;;
50900;SDS011;36879;51.416;6.678;2022-12-07T04:00:53;47.00;;;29.10;;
50900;SDS011;36879;51.416;6.678;2022-12-07T04:03:19;54.85;;;31.75;;
50900;SDS011;36879;51.416;6.678;2022-12-07T04:05:45;46.83;;;28.58;;
50900;SDS011;36879;51.416;6.678;2022-12-07T04:08:11;44.20;;;27.08;;
50900;SDS011;36879;51.416;6.678;2022-12-07T04:10:37;52.60;;;31.40;;
50900;SDS011;36879;51.416;6.678;2022-12-07T04:13:03;54.90;;;30.80;;
50900;SDS011;36879;51.416;6.678;2022-12-07T04:15:29;49.95;;;29.83;;
50900;SDS011;36879;51.416;6.678;2022-12-07T04:17:55;50.47;;;28.05;;
50900;SDS011;36879;51.416;6.678;2022-12-07T04:20:21;50.05;;;29.63;;
50900;SDS011;36879;51.416;6.678;2022-12-07T04:22:47;49.60;;;29.90;;
50900;SDS011;36879;51.416;6.678;2022-12-07T04:25:13;50.33;;;30.38;;
50900;SDS011;36879;51.416;6.678;2022-12-07T04:27:39;45.30;;;28.20;;
50900;SDS011;36879;51.416;6.678;2022-12-07T04:30:05;58.28;;;29.13;;
50900;SDS011;36879;51.416;6.678;2022-12-07T04:32:32;45.72;;;27.15;;
50900;SDS011;36879;51.416;6.678;2022-12-07T04:34:58;40.83;;;28.30;;
50900;SDS011;36879;51.416;6.678;2022-12-07T04:37:24;45.15;;;26.27;;
50900;SDS011;36879;51.416;6.678;2022-12-07T04:39:50;48.92;;;28.80;;
50900;SDS011;36879;51.416;6.678;2022-12-07T04:42:16;47.50;;;27.08;;
50900;SDS011;36879;51.416;6.678;2022-12-07T04:44:42;52.33;;;29.63;;
50900;SDS011;36879;51.416;6.678;2022-12-07T04:47:08;46.47;;;27.58;;
50900;SDS011;36879;51.416;6.678;2022-12-07T04:49:34;48.08;;;28.20;;
50900;SDS011;36879;51.416;6.678;2022-12-07T04:52:02;42.92;;;26.33;;
50900;SDS011;36879;51.416;6.678;2022-12-07T04:54:28;49.20;;;29.50;;
50900;SDS011;36879;51.416;6.678;2022-12-07T04:56:54;42.33;;;25.90;;
50900;SDS011;36879;51.416;6.678;2022-12-07T04:59:20;45.20;;;27.33;;
50900;SDS011;36879;51.416;6.678;2022-12-07T05:01:46;50.15;;;26.95;;
50900;SDS011;36879;51.416;6.678;2022-12-07T05:04:12;44.97;;;28.05;;
50900;SDS011;36879;51.416;6.678;2022-12-07T05:06:38;40.15;;;25.60;;
50900;SDS011;36879;51.416;6.678;2022-12-07T05:09:04;51.90;;;25.80;;
50900;SDS011;36879;51.416;6.678;2022-12-07T05:11:30;43.38;;;27.77;;
50900;SDS011;36879;51.416;6.678;2022-12-07T05:14:03;55.88;;;27.38;;
50900;SDS011;36879;51.416;6.678;2022-12-07T05:16:29;40.50;;;26.45;;
50900;SDS011;36879;51.416;6.678;2022-12-07T05:18:55;43.38;;;25.38;;
50900;SDS011;36879;51.416;6.678;2022-12-07T05:21:21;46.60;;;26.20;;
50900;SDS011;36879;51.416;6.678;2022-12-07T05:23:47;49.45;;;25.02;;
50900;SDS011;36879;51.416;6.678;2022-12-07T05:26:13;38.25;;;23.75;;
50900;SDS011;36879;51.416;6.678;2022-12-07T05:28:39;46.53;;;24.17;;
50900;SDS011;36879;51.416;6.678;2022-12-07T05:31:05;39.80;;;23.50;;
50900;SDS011;36879;51.416;6.678;2022-12-07T05:33:31;42.75;;;24.48;;
50900;SDS011;36879;51.416;6.678;2022-12-07T05:35:57;38.58;;;23.45;;
50900;SDS011;36879;51.416;6.678;2022-12-07T05:38:23;40.90;;;24.65;;
50900;SDS011;36879;51.416;6.678;2022-12-07T05:40:52;43.40;;;22.48;;
50900;SDS011;36879;51.416;6.678;2022-12-07T05:43:18;41.97;;;23.10;;
50900;SDS011;36879;51.416;6.678;2022-12-07T05:45:44;40.80;;;24.00;;
50900;SDS011;36879;51.416;6.678;2022-12-07T05:48:10;40.42;;;22.60;;
50900;SDS011;36879;51.416;6.678;2022-12-07T05:50:36;42.80;;;23.42;;
50900;SDS011;36879;51.416;6.678;2022-12-07T05:53:02;41.22;;;24.55;;
50900;SDS011;36879;51.416;6.678;2022-12-07T05:55:28;40.45;;;21.98;;
50900;SDS011;36879;51.416;6.678;2022-12-07T05:57:54;39.67;;;23.00;;
50900;SDS011;36879;51.416;6.678;2022-12-07T06:00:46;37.58;;;21.70;;
50900;SDS011;36879;51.416;6.678;2022-12-07T06:03:12;44.55;;;23.35;;
50900;SDS011;36879;51.416;6.678;2022-12-07T06:05:38;38.85;;;22.98;;
50900;SDS011;36879;51.416;6.678;2022-12-07T06:08:04;47.22;;;23.42;;
50900;SDS011;36879;51.416;6.678;2022-12-07T06:10:30;36.58;;;22.88;;
50900;SDS011;36879;51.416;6.678;2022-12-07T06:12:56;36.53;;;21.27;;
50900;SDS011;36879;51.416;6.678;2022-12-07T06:15:22;40.35;;;23.88;;
50900;SDS011;36879;51.416;6.678;2022-12-07T06:17:48;37.42;;;21.55;;
50900;SDS011;36879;51.416;6.678;2022-12-07T06:20:14;37.28;;;22.20;;
50900;SDS011;36879;51.416;6.678;2022-12-07T06:22:40;38.13;;;22.33;;
50900;SDS011;36879;51.416;6.678;2022-12-07T06:25:06;40.63;;;22.83;;
50900;SDS011;36879;51.416;6.678;2022-12-07T06:27:32;47.00;;;22.02;;
50900;SDS011;36879;51.416;6.678;2022-12-07T06:29:58;35.85;;;22.00;;
50900;SDS011;36879;51.416;6.678;2022-12-07T06:32:24;39.78;;;22.10;;
50900;SDS011;36879;51.416;6.678;2022-12-07T06:34:51;36.35;;;21.48;;
50900;SDS011;36879;51.416;6.678;2022-12-07T06:37:17;40.22;;;23.20;;
50900;SDS011;36879;51.416;6.678;2022-12-07T06:39:43;37.35;;;21.13;;
50900;SDS011;36879;51.416;6.678;2022-12-07T06:42:09;40.50;;;23.02;;
50900;SDS011;36879;51.416;6.678;2022-12-07T06:44:35;27.50;;;19.30;;
50900;SDS011;36879;51.416;6.678;2022-12-07T06:47:01;37.65;;;23.08;;
50900;SDS011;36879;51.416;6.678;2022-12-07T06:49:27;36.97;;;22.08;;
50900;SDS011;36879;51.416;6.678;2022-12-07T06:51:53;33.65;;;20.63;;
50900;SDS011;36879;51.416;6.678;2022-12-07T06:54:19;39.33;;;21.63;;
50900;SDS011;36879;51.416;6.678;2022-12-07T06:56:45;35.15;;;21.17;;
50900;SDS011;36879;51.416;6.678;2022-12-07T06:59:11;39.25;;;22.67;;
50900;SDS011;36879;51.416;6.678;2022-12-07T07:01:37;33.40;;;20.70;;
50900;SDS011;36879;51.416;6.678;2022-12-07T07:04:03;37.90;;;21.67;;
50900;SDS011;36879;51.416;6.678;2022-12-07T07:06:29;38.45;;;22.00;;
50900;SDS011;36879;51.416;6.678;2022-12-07T07:08:55;38.53;;;21.50;;
50900;SDS011;36879;51.416;6.678;2022-12-07T07:11:21;33.85;;;20.50;;
50900;SDS011;36879;51.416;6.678;2022-12-07T07:13:47;36.60;;;20.25;;
50900;SDS011;36879;51.416;6.678;2022-12-07T07:16:13;30.50;;;18.35;;
50900;SDS011;36879;51.416;6.678;2022-12-07T07:18:39;32.63;;;19.50;;
50900;SDS011;36879;51.416;6.678;2022-12-07T07:21:05;34.17;;;19.13;;
50900;SDS011;36879;51.416;6.678;2022-12-07T07:23:31;41.15;;;20.40;;
50900;SDS011;36879;51.416;6.678;2022-12-07T07:25:57;37.45;;;21.35;;
50900;SDS011;36879;51.416;6.678;2022-12-07T07:28:23;29.35;;;18.58;;
50900;SDS011;36879;51.416;6.678;2022-12-07T07:30:49;32.00;;;17.83;;
50900;SDS011;36879;51.416;6.678;2022-12-07T07:33:15;31.88;;;18.75;;
50900;SDS011;36879;51.416;6.678;2022-12-07T07:35:41;27.45;;;17.55;;
50900;SDS011;36879;51.416;6.678;2022-12-07T07:38:07;29.83;;;18.73;;
50900;SDS011;36879;51.416;6.678;2022-12-07T07:40:34;29.75;;;17.80;;
50900;SDS011;36879;51.416;6.678;2022-12-07T07:43:00;31.08;;;20.35;;
50900;SDS011;36879;51.416;6.678;2022-12-07T07:45:26;30.23;;;18.35;;
50900;SDS011;36879;51.416;6.678;2022-12-07T07:47:52;37.58;;;21.33;;
50900;SDS011;36879;51.416;6.678;2022-12-07T07:50:19;36.80;;;19.85;;
50900;SDS011;36879;51.416;6.678;2022-12-07T07:52:45;43.67;;;19.38;;
50900;SDS011;36879;51.416;6.678;2022-12-07T07:55:12;34.05;;;20.80;;
50900;SDS011;36879;51.416;6.678;2022-12-07T07:57:39;36.83;;;19.88;;
50900;SDS011;36879;51.416;6.678;2022-12-07T08:00:07;36.35;;;18.98;;
50900;SDS011;36879;51.416;6.678;2022-12-07T08:02:33;30.13;;;18.77;;
50900;SDS011;36879;51.416;6.678;2022-12-07T08:04:59;123.28;;;29.50;;
50900;SDS011;36879;51.416;6.678;2022-12-07T08:07:26;46.88;;;21.55;;
50900;SDS011;36879;51.416;6.678;2022-12-07T08:09:52;37.80;;;19.75;;
50900;SDS011;36879;51.416;6.678;2022-12-07T08:12:18;41.53;;;20.60;;
50900;SDS011;36879;51.416;6.678;2022-12-07T08:14:44;36.05;;;18.10;;
50900;SDS011;36879;51.416;6.678;2022-12-07T08:17:10;30.52;;;18.02;;
50900;SDS011;36879;51.416;6.678;2022-12-07T08:19:37;37.42;;;19.42;;
50900;SDS011;36879;51.416;6.678;2022-12-07T08:22:03;32.85;;;18.33;;
50900;SDS011;36879;51.416;6.678;2022-12-07T08:24:29;41.75;;;19.40;;
50900;SDS011;36879;51.416;6.678;2022-12-07T08:26:55;34.72;;;19.95;;
50900;SDS011;36879;51.416;6.678;2022-12-07T08:29:21;33.70;;;17.80;;
50900;SDS011;36879;51.416;6.678;2022-12-07T08:31:47;38.25;;;19.77;;
50900;SDS011;36879;51.416;6.678;2022-12-07T08:34:13;36.00;;;19.98;;
50900;SDS011;36879;51.416;6.678;2022-12-07T08:36:39;36.97;;;19.98;;
50900;SDS011;36879;51.416;6.678;2022-12-07T08:39:05;35.33;;;19.30;;
50900;SDS011;36879;51.416;6.678;2022-12-07T08:41:31;39.28;;;20.13;;
50900;SDS011;36879;51.416;6.678;2022-12-07T08:43:57;37.03;;;19.15;;
50900;SDS011;36879;51.416;6.678;2022-12-07T08:48:51;32.67;;;18.23;;
50900;SDS011;36879;51.416;6.678;2022-12-07T08:51:17;24.58;;;17.15;;
50900;SDS011;36879;51.416;6.678;2022-12-07T08:53:43;42.83;;;16.67;;
50900;SDS011;36879;51.416;6.678;2022-12-07T08:56:10;34.53;;;18.35;;
50900;SDS011;36879;51.416;6.678;2022-12-07T08:58:36;33.55;;;18.35;;
50900;SDS011;36879;51.416;6.678;2022-12-07T09:01:03;34.97;;;17.77;;
50900;SDS011;36879;51.416;6.678;2022-12-07T09:03:29;32.85;;;17.40;;
50900;SDS011;36879;51.416;6.678;2022-12-07T09:05:55;35.30;;;17.98;;
50900;SDS011;36879;51.416;6.678;2022-12-07T09:08:22;26.85;;;16.85;;
50900;SDS011;36879;51.416;6.678;2022-12-07T09:10:48;35.10;;;18.60;;
50900;SDS011;36879;51.416;6.678;2022-12-07T09:13:14;29.60;;;17.63;;
50900;SDS011;36879;51.416;6.678;2022-12-07T09:15:40;38.70;;;19.60;;
50900;SDS011;36879;51.416;6.678;2022-12-07T09:18:06;33.80;;;19.23;;
50900;SDS011;36879;51.416;6.678;2022-12-07T09:20:32;30.92;;;19.45;;
50900;SDS011;36879;51.416;6.678;2022-12-07T09:22:58;29.83;;;18.55;;
50900;SDS011;36879;51.416;6.678;2022-12-07T09:25:24;25.85;;;16.08;;
50900;SDS011;36879;51.416;6.678;2022-12-07T09:27:57;33.22;;;18.30;;
50900;SDS011;36879;51.416;6.678;2022-12-07T09:30:24;30.98;;;18.05;;
50900;SDS011;36879;51.416;6.678;2022-12-07T09:32:50;32.03;;;16.63;;
50900;SDS011;36879;51.416;6.678;2022-12-07T09:35:16;26.02;;;16.00;;
50900;SDS011;36879;51.416;6.678;2022-12-07T09:37:42;24.33;;;15.00;;
50900;SDS011;36879;51.416;6.678;2022-12-07T09:40:08;28.17;;;16.17;;
50900;SDS011;36879;51.416;6.678;2022-12-07T09:42:35;30.23;;;16.05;;
50900;SDS011;36879;51.416;6.678;2022-12-07T09:45:02;22.55;;;13.75;;
50900;SDS011;36879;51.416;6.678;2022-12-07T09:47:30;24.10;;;13.95;;
50900;SDS011;36879;51.416;6.678;2022-12-07T09:50:00;25.73;;;14.10;;
50900;SDS011;36879;51.416;6.678;2022-12-07T09:52:29;30.13;;;14.73;;
50900;SDS011;36879;51.416;6.678;2022-12-07T09:54:56;22.15;;;13.82;;
50900;SDS011;36879;51.416;6.678;2022-12-07T09:57:32;24.63;;;13.30;;
50900;SDS011;36879;51.416;6.678;2022-12-07T10:00:04;27.35;;;13.55;;
50900;SDS011;36879;51.416;6.678;2022-12-07T10:02:37;30.40;;;11.73;;
50900;SDS011;36879;51.416;6.678;2022-12-07T10:05:05;15.68;;;10.02;;
50900;SDS011;36879;51.416;6.678;2022-12-07T10:07:31;22.90;;;11.35;;
50900;SDS011;36879;51.416;6.678;2022-12-07T10:09:57;18.25;;;10.77;;
50900;SDS011;36879;51.416;6.678;2022-12-07T10:12:23;22.33;;;10.43;;
50900;SDS011;36879;51.416;6.678;2022-12-07T10:15:04;14.27;;;9.30;;
50900;SDS011;36879;51.416;6.678;2022-12-07T10:17:36;14.95;;;7.85;;
50900;SDS011;36879;51.416;6.678;2022-12-07T10:22:37;13.63;;;6.75;;
50900;SDS011;36879;51.416;6.678;2022-12-07T10:25:17;12.55;;;7.20;;
50900;SDS011;36879;51.416;6.678;2022-12-07T10:27:44;12.52;;;6.53;;
50900;SDS011;36879;51.416;6.678;2022-12-07T10:30:22;12.68;;;6.25;;
50900;SDS011;36879;51.416;6.678;2022-12-07T10:32:48;7.95;;;5.43;;
50900;SDS011;36879;51.416;6.678;2022-12-07T10:37:49;6.90;;;5.07;;
50900;SDS011;36879;51.416;6.678;2022-12-07T10:40:30;10.35;;;4.82;;
50900;SDS011;36879;51.416;6.678;2022-12-07T10:43:03;9.15;;;4.32;;
50900;SDS011;36879;51.416;6.678;2022-12-07T10:45:29;9.95;;;3.83;;
50900;SDS011;36879;51.416;6.678;2022-12-07T10:48:00;8.02;;;4.18;;
50900;SDS011;36879;51.416;6.678;2022-12-07T10:55:46;5.82;;;3.17;;
50900;SDS011;36879;51.416;6.678;2022-12-07T11:06:10;10.38;;;3.08;;
50900;SDS011;36879;51.416;6.678;2022-12-07T11:11:34;5.80;;;3.38;;
50900;SDS011;36879;51.416;6.678;2022-12-07T11:29:25;5.47;;;3.05;;
50900;SDS011;36879;51.416;6.678;2022-12-07T11:31:57;6.68;;;3.15;;
50900;SDS011;36879;51.416;6.678;2022-12-07T11:36:54;5.53;;;2.60;;
50900;SDS011;36879;51.416;6.678;2022-12-07T11:41:55;7.85;;;3.67;;
50900;SDS011;36879;51.416;6.678;2022-12-07T11:47:08;6.00;;;2.55;;
50900;SDS011;36879;51.416;6.678;2022-12-07T11:49:58;9.18;;;2.90;;
50900;SDS011;36879;51.416;6.678;2022-12-07T11:55:17;7.57;;;3.22;;
50900;SDS011;36879;51.416;6.678;2022-12-07T11:57:45;6.38;;;3.10;;
50900;SDS011;36879;51.416;6.678;2022-12-07T12:00:16;4.32;;;2.42;;
50900;SDS011;36879;51.416;6.678;2022-12-07T12:02:51;5.50;;;2.95;;
50900;SDS011;36879;51.416;6.678;2022-12-07T12:05:22;6.20;;;3.38;;
50900;SDS011;36879;51.416;6.678;2022-12-07T12:07:53;6.15;;;3.58;;
50900;SDS011;36879;51.416;6.678;2022-12-07T12:10:37;6.38;;;3.17;;
50900;SDS011;36879;51.416;6.678;2022-12-07T12:13:10;6.20;;;2.50;;
50900;SDS011;36879;51.416;6.678;2022-12-07T12:18:26;8.50;;;2.67;;
50900;SDS011;36879;51.416;6.678;2022-12-07T12:20:58;5.78;;;2.47;;
50900;SDS011;36879;51.416;6.678;2022-12-07T12:25:57;7.78;;;2.90;;
50900;SDS011;36879;51.416;6.678;2022-12-07T12:28:30;8.75;;;3.08;;
50900;SDS011;36879;51.416;6.678;2022-12-07T12:33:32;4.60;;;1.50;;
50900;SDS011;36879;51.416;6.678;2022-12-07T12:39:07;3.30;;;1.15;;
50900;SDS011;36879;51.416;6.678;2022-12-07T12:46:59;7.82;;;3.53;;
50900;SDS011;36879;51.416;6.678;2022-12-07T12:54:57;10.20;;;5.50;;
50900;SDS011;36879;51.416;6.678;2022-12-07T12:57:28;8.52;;;4.70;;
50900;SDS011;36879;51.416;6.678;2022-12-07T13:04:53;8.57;;;4.90;;
50900;SDS011;36879;51.416;6.678;2022-12-07T13:10:09;8.82;;;4.88;;
50900;SDS011;36879;51.416;6.678;2022-12-07T13:15:35;9.32;;;4.75;;
50900;SDS011;36879;51.416;6.678;2022-12-07T13:18:03;13.95;;;4.78;;
50900;SDS011;36879;51.416;6.678;2022-12-07T13:23:27;9.95;;;4.20;;
50900;SDS011;36879;51.416;6.678;2022-12-07T13:26:14;8.18;;;3.90;;
50900;SDS011;36879;51.416;6.678;2022-12-07T13:28:42;10.85;;;3.92;;
50900;SDS011;36879;51.416;6.678;2022-12-07T13:33:53;7.07;;;3.80;;
50900;SDS011;36879;51.416;6.678;2022-12-07T13:36:23;6.47;;;3.78;;
50900;SDS011;36879;51.416;6.678;2022-12-07T13:38:53;5.10;;;2.67;;
50900;SDS011;36879;51.416;6.678;2022-12-07T13:41:21;6.90;;;2.80;;
50900;SDS011;36879;51.416;6.678;2022-12-07T13:46:20;6.47;;;2.83;;
50900;SDS011;36879;51.416;6.678;2022-12-07T13:48:50;7.63;;;3.13;;
50900;SDS011;36879;51.416;6.678;2022-12-07T13:51:26;4.55;;;2.15;;
50900;SDS011;36879;51.416;6.678;2022-12-07T13:56:20;4.47;;;2.08;;
50900;SDS011;36879;51.416;6.678;2022-12-07T13:58:47;6.40;;;2.33;;
50900;SDS011;36879;51.416;6.678;2022-12-07T14:01:13;6.03;;;1.75;;
50900;SDS011;36879;51.416;6.678;2022-12-07T14:03:39;4.20;;;2.00;;
50900;SDS011;36879;51.416;6.678;2022-12-07T14:06:13;5.65;;;1.80;;
50900;SDS011;36879;51.416;6.678;2022-12-07T14:08:40;3.33;;;1.67;;
50900;SDS011;36879;51.416;6.678;2022-12-07T14:11:06;8.02;;;2.10;;
50900;SDS011;36879;51.416;6.678;2022-12-07T14:13:37;7.18;;;2.10;;
50900;SDS011;36879;51.416;6.678;2022-12-07T14:18:49;5.97;;;2.10;;
50900;SDS011;36879;51.416;6.678;2022-12-07T14:21:16;5.05;;;1.90;;
50900;SDS011;36879;51.416;6.678;2022-12-07T14:23:43;7.07;;;2.00;;
50900;SDS011;36879;51.416;6.678;2022-12-07T14:26:18;12.23;;;2.22;;
50900;SDS011;36879;51.416;6.678;2022-12-07T14:28:44;13.25;;;3.05;;
50900;SDS011;36879;51.416;6.678;2022-12-07T14:31:12;7.72;;;3.42;;
50900;SDS011;36879;51.416;6.678;2022-12-07T14:33:39;9.38;;;2.58;;
50900;SDS011;36879;51.416;6.678;2022-12-07T14:36:05;14.70;;;6.10;;
50900;SDS011;36879;51.416;6.678;2022-12-07T14:38:31;13.65;;;6.47;;
50900;SDS011;36879;51.416;6.678;2022-12-07T14:40:57;20.85;;;8.65;;
50900;SDS011;36879;51.416;6.678;2022-12-07T14:43:43;35.53;;;15.75;;
50900;SDS011;36879;51.416;6.678;2022-12-07T14:46:09;23.15;;;10.32;;
50900;SDS011;36879;51.416;6.678;2022-12-07T14:48:35;24.67;;;11.63;;
50900;SDS011;36879;51.416;6.678;2022-12-07T14:51:01;17.30;;;7.10;;
50900;SDS011;36879;51.416;6.678;2022-12-07T14:53:29;17.00;;;7.85;;
50900;SDS011;36879;51.416;6.678;2022-12-07T14:55:56;12.90;;;6.13;;
50900;SDS011;36879;51.416;6.678;2022-12-07T14:58:22;18.45;;;6.40;;
50900;SDS011;36879;51.416;6.678;2022-12-07T15:00:48;10.30;;;4.30;;
50900;SDS011;36879;51.416;6.678;2022-12-07T15:03:14;9.40;;;4.10;;
50900;SDS011;36879;51.416;6.678;2022-12-07T15:05:40;9.18;;;4.30;;
50900;SDS011;36879;51.416;6.678;2022-12-07T15:08:08;9.50;;;3.53;;
50900;SDS011;36879;51.416;6.678;2022-12-07T15:10:34;10.13;;;4.47;;
50900;SDS011;36879;51.416;6.678;2022-12-07T15:13:03;7.40;;;4.57;;
50900;SDS011;36879;51.416;6.678;2022-12-07T15:15:50;13.52;;;4.80;;
50900;SDS011;36879;51.416;6.678;2022-12-07T15:18:16;8.52;;;3.88;;
50900;SDS011;36879;51.416;6.678;2022-12-07T15:20:43;7.30;;;4.53;;
50900;SDS011;36879;51.416;6.678;2022-12-07T15:23:10;10.88;;;4.90;;
50900;SDS011;36879;51.416;6.678;2022-12-07T15:25:36;14.65;;;5.53;;
50900;SDS011;36879;51.416;6.678;2022-12-07T15:28:02;13.10;;;5.30;;
50900;SDS011;36879;51.416;6.678;2022-12-07T15:30:28;8.02;;;5.60;;
50900;SDS011;36879;51.416;6.678;2022-12-07T15:32:54;12.02;;;6.28;;
50900;SDS011;36879;51.416;6.678;2022-12-07T15:35:20;9.95;;;5.05;;
50900;SDS011;36879;51.416;6.678;2022-12-07T15:37:46;9.73;;;5.85;;
50900;SDS011;36879;51.416;6.678;2022-12-07T15:40:12;10.25;;;5.15;;
50900;SDS011;36879;51.416;6.678;2022-12-07T15:42:38;11.80;;;6.05;;
50900;SDS011;36879;51.416;6.678;2022-12-07T15:45:05;10.75;;;5.85;;
50900;SDS011;36879;51.416;6.678;2022-12-07T15:47:36;9.88;;;5.75;;
50900;SDS011;36879;51.416;6.678;2022-12-07T15:50:03;13.40;;;5.10;;
50900;SDS011;36879;51.416;6.678;2022-12-07T15:52:30;14.73;;;5.90;;
50900;SDS011;36879;51.416;6.678;2022-12-07T15:54:56;12.77;;;6.75;;
50900;SDS011;36879;51.416;6.678;2022-12-07T15:57:22;11.93;;;5.55;;
50900;SDS011;36879;51.416;6.678;2022-12-07T15:59:48;9.48;;;6.47;;
50900;SDS011;36879;51.416;6.678;2022-12-07T16:02:14;12.90;;;5.13;;
50900;SDS011;36879;51.416;6.678;2022-12-07T16:04:40;9.55;;;5.10;;
50900;SDS011;36879;51.416;6.678;2022-12-07T16:07:06;15.13;;;4.80;;
50900;SDS011;36879;51.416;6.678;2022-12-07T16:09:32;6.63;;;4.07;;
50900;SDS011;36879;51.416;6.678;2022-12-07T16:11:58;11.35;;;5.13;;
50900;SDS011;36879;51.416;6.678;2022-12-07T16:14:24;9.48;;;4.50;;
50900;SDS011;36879;51.416;6.678;2022-12-07T16:16:50;10.45;;;4.47;;
50900;SDS011;36879;51.416;6.678;2022-12-07T16:19:16;9.18;;;4.95;;
50900;SDS011;36879;51.416;6.678;2022-12-07T16:21:42;13.75;;;6.18;;
50900;SDS011;36879;51.416;6.678;2022-12-07T16:24:08;15.30;;;5.70;;
50900;SDS011;36879;51.416;6.678;2022-12-07T16:26:35;14.15;;;5.93;;
50900;SDS011;36879;51.416;6.678;2022-12-07T16:29:01;12.05;;;5.88;;
50900;SDS011;36879;51.416;6.678;2022-12-07T16:31:28;9.05;;;5.35;;
50900;SDS011;36879;51.416;6.678;2022-12-07T16:33:55;12.30;;;6.07;;
50900;SDS011;36879;51.416;6.678;2022-12-07T16:36:22;10.50;;;5.53;;
50900;SDS011;36879;51.416;6.678;2022-12-07T16:38:50;19.60;;;7.22;;